<?xml version="1.0" encoding="utf-8"?>
<gpx xmlns:xsi="http://www.w3.org/2001/XMLSchema-instance" xmlns:xsd="http://www.w3.org/2001/XMLSchema" version="1.1" creator="Shapelink.com" xmlns="http://www.topografix.com/GPX/1/1" xmlns:gpxtpx="http://www.garmin.com/xmlschemas/TrackPointExtension/v1">
  <metadata>
    <name>Övrigt 1.44 km, 2020-02-09</name>
    <desc></desc>
    <author><name>Marian Moron</name></author> 
    <time>2020-02-09T19:43:47Z</time>
  </metadata>
  <trk>
    <name>Övrigt 1.44 km, 2020-02-09</name>
    <trkseg>
      <trkpt lat="51.23040078768" lon="4.458757320873">
        <ele>13.4</ele>
        <time>2020-02-09T19:43:47Z</time>
      </trkpt>
      <trkpt lat="51.230565408196" lon="4.458711555699">
        <ele>18.6</ele>
        <time>2020-02-09T19:44:03Z</time>
      </trkpt>
      <trkpt lat="51.231016773511" lon="4.458548360106">
        <ele>5.4</ele>
        <time>2020-02-09T19:44:29Z</time>
      </trkpt>
      <trkpt lat="51.231176197249" lon="4.458460769251">
        <ele>3.6</ele>
        <time>2020-02-09T19:44:41Z</time>
      </trkpt>
      <trkpt lat="51.231468725559" lon="4.458253401045">
        <ele>5.8</ele>
        <time>2020-02-09T19:45:21Z</time>
      </trkpt>
      <trkpt lat="51.231866530533" lon="4.457940588537">
        <ele>6.8</ele>
        <time>2020-02-09T19:45:46Z</time>
      </trkpt>
      <trkpt lat="51.231897124468" lon="4.457941594365">
        <ele>6.8</ele>
        <time>2020-02-09T19:45:48Z</time>
      </trkpt>
      <trkpt lat="51.232345639937" lon="4.457692065202">
        <ele>5.4</ele>
        <time>2020-02-09T19:46:12Z</time>
      </trkpt>
      <trkpt lat="51.232416466992" lon="4.457668092968">
        <ele>5.2</ele>
        <time>2020-02-09T19:46:15Z</time>
      </trkpt>
      <trkpt lat="51.232447899117" lon="4.457535407491">
        <ele>5.8</ele>
        <time>2020-02-09T19:46:21Z</time>
      </trkpt>
      <trkpt lat="51.232054704188" lon="4.457174063782">
        <ele>5.2</ele>
        <time>2020-02-09T19:46:42Z</time>
      </trkpt>
      <trkpt lat="51.231881534134" lon="4.456927216827">
        <ele>4.4</ele>
        <time>2020-02-09T19:47:04Z</time>
      </trkpt>
      <trkpt lat="51.231773156167" lon="4.456837027583">
        <ele>4.4</ele>
        <time>2020-02-09T19:47:13Z</time>
      </trkpt>
      <trkpt lat="51.231692857565" lon="4.4567819585">
        <ele>4.8</ele>
        <time>2020-02-09T19:47:20Z</time>
      </trkpt>
      <trkpt lat="51.231485321721" lon="4.456676178922">
        <ele>5.6</ele>
        <time>2020-02-09T19:47:34Z</time>
      </trkpt>
      <trkpt lat="51.231278456429" lon="4.456489346371">
        <ele>4.6</ele>
        <time>2020-02-09T19:47:53Z</time>
      </trkpt>
      <trkpt lat="51.231148788436" lon="4.456427907044">
        <ele>3.6</ele>
        <time>2020-02-09T19:48:07Z</time>
      </trkpt>
      <trkpt lat="51.230774033687" lon="4.456212073119">
        <ele>0</ele>
        <time>2020-02-09T19:48:36Z</time>
      </trkpt>
      <trkpt lat="51.230721982088" lon="4.456228669281">
        <ele>0</ele>
        <time>2020-02-09T19:48:42Z</time>
      </trkpt>
      <trkpt lat="51.230288051125" lon="4.456407539027">
        <ele>1.8</ele>
        <time>2020-02-09T19:49:16Z</time>
      </trkpt>
      <trkpt lat="51.230244716702" lon="4.456435450754">
        <ele>1.8</ele>
        <time>2020-02-09T19:49:19Z</time>
      </trkpt>
      <trkpt lat="51.230206579057" lon="4.456438635876">
        <ele>1.2</ele>
        <time>2020-02-09T19:49:23Z</time>
      </trkpt>
      <trkpt lat="51.229758398864" lon="4.456594874492">
        <ele>0</ele>
        <time>2020-02-09T19:49:53Z</time>
      </trkpt>
      <trkpt lat="51.229510546081" lon="4.456821185792">
        <ele>0</ele>
        <time>2020-02-09T19:50:17Z</time>
      </trkpt>
      <trkpt lat="51.229173845158" lon="4.45685152827">
        <ele>0.2</ele>
        <time>2020-02-09T19:50:38Z</time>
      </trkpt>
      <trkpt lat="51.228766065723" lon="4.456904250421">
        <ele>12.6</ele>
        <time>2020-02-09T19:51:24Z</time>
      </trkpt>
      <trkpt lat="51.228640253404" lon="4.456911123579">
        <ele>16.6</ele>
        <time>2020-02-09T19:51:41Z</time>
      </trkpt>
      <trkpt lat="51.228422324004" lon="4.457167609719">
        <ele>0</ele>
        <time>2020-02-09T19:52:07Z</time>
      </trkpt>
      <trkpt lat="51.22799937333" lon="4.457475728363">
        <ele>0</ele>
        <time>2020-02-09T19:52:45Z</time>
      </trkpt>
      <trkpt lat="51.227701312966" lon="4.45764110325">
        <ele>0</ele>
        <time>2020-02-09T19:53:31Z</time>
      </trkpt>
      <trkpt lat="51.227643813132" lon="4.45775174433">
        <ele>0</ele>
        <time>2020-02-09T19:53:45Z</time>
      </trkpt>
      <trkpt lat="51.227375843789" lon="4.457750403226">
        <ele>0</ele>
        <time>2020-02-09T19:54:41Z</time>
      </trkpt>
      <trkpt lat="51.226986672172" lon="4.457988616824">
        <ele>0</ele>
        <time>2020-02-09T19:55:15Z</time>
      </trkpt>
      <trkpt lat="51.22703461664" lon="4.45775677347">
        <ele>5.2</ele>
        <time>2020-02-09T19:55:32Z</time>
      </trkpt>
      <trkpt lat="51.227136121449" lon="4.457751995787">
        <ele>18</ele>
        <time>2020-02-09T19:55:48Z</time>
      </trkpt>
      <trkpt lat="51.227333934289" lon="4.457692568116">
        <ele>20.2</ele>
        <time>2020-02-09T19:56:07Z</time>
      </trkpt>
      <trkpt lat="51.22753333969" lon="4.45758997366">
        <ele>24.6</ele>
        <time>2020-02-09T19:56:26Z</time>
      </trkpt>
      <trkpt lat="51.227948998111" lon="4.457303396499">
        <ele>20.6</ele>
        <time>2020-02-09T19:56:57Z</time>
      </trkpt>
      <trkpt lat="51.228263738456" lon="4.457097537035">
        <ele>26</ele>
        <time>2020-02-09T19:57:22Z</time>
      </trkpt>
      <trkpt lat="51.228603540682" lon="4.457015562053">
        <ele>26.2</ele>
        <time>2020-02-09T19:57:43Z</time>
      </trkpt>
      <trkpt lat="51.229048284296" lon="4.456906513534">
        <ele>23.8</ele>
        <time>2020-02-09T19:58:09Z</time>
      </trkpt>
      <trkpt lat="51.229291443215" lon="4.45687583578">
        <ele>18</ele>
        <time>2020-02-09T19:58:35Z</time>
      </trkpt>
      <trkpt lat="51.22936897579" lon="4.456882625119">
        <ele>18.2</ele>
        <time>2020-02-09T19:58:40Z</time>
      </trkpt>
      <trkpt lat="51.229532925754" lon="4.45686996845">
        <ele>7.8</ele>
        <time>2020-02-09T19:58:55Z</time>
      </trkpt>
      <trkpt lat="51.229755297561" lon="4.456988069421">
        <ele>3.8</ele>
        <time>2020-02-09T19:59:10Z</time>
      </trkpt>
      <trkpt lat="51.229817910354" lon="4.457641773802">
        <ele>0</ele>
        <time>2020-02-09T20:00:13Z</time>
      </trkpt>
      <trkpt lat="51.229862837338" lon="4.457889123671">
        <ele>0</ele>
        <time>2020-02-09T20:00:30Z</time>
      </trkpt>
      <trkpt lat="51.229867447383" lon="4.458099341723">
        <ele>0</ele>
        <time>2020-02-09T20:00:47Z</time>
      </trkpt>
      <trkpt lat="51.229846492633" lon="4.458351804551">
        <ele>0</ele>
        <time>2020-02-09T20:01:05Z</time>
      </trkpt>
      <trkpt lat="51.22981656925" lon="4.458234960865">
        <ele>1.6</ele>
        <time>2020-02-09T20:01:23Z</time>
      </trkpt>
      <trkpt lat="51.229794021939" lon="4.457975624879">
        <ele>2.6</ele>
        <time>2020-02-09T20:01:50Z</time>
      </trkpt>
    </trkseg>
  </trk>
</gpx>